sensor_id;sensor_type;location;lat;lon;timestamp;P1;durP1;ratioP1;P2;durP2;ratioP2
31061;SDS011;17724;53.546;9.974;2023-07-24T00:01:54;5.67;;;2.70;;
31061;SDS011;17724;53.546;9.974;2023-07-24T00:05:57;6.47;;;2.33;;
31061;SDS011;17724;53.546;9.974;2023-07-24T00:09:59;6.87;;;2.30;;
31061;SDS011;17724;53.546;9.974;2023-07-24T00:13:59;7.93;;;2.43;;
31061;SDS011;17724;53.546;9.974;2023-07-24T00:18:00;5.33;;;2.60;;
31061;SDS011;17724;53.546;9.974;2023-07-24T00:22:00;5.80;;;2.77;;
31061;SDS011;17724;53.546;9.974;2023-07-24T00:26:01;5.10;;;2.33;;
31061;SDS011;17724;53.546;9.974;2023-07-24T00:30:01;6.53;;;3.17;;
31061;SDS011;17724;53.546;9.974;2023-07-24T00:34:02;5.73;;;2.80;;
31061;SDS011;17724;53.546;9.974;2023-07-24T00:38:03;5.57;;;2.50;;
31061;SDS011;17724;53.546;9.974;2023-07-24T00:42:03;5.87;;;2.60;;
31061;SDS011;17724;53.546;9.974;2023-07-24T00:46:04;5.40;;;2.50;;
31061;SDS011;17724;53.546;9.974;2023-07-24T00:50:04;6.60;;;2.93;;
31061;SDS011;17724;53.546;9.974;2023-07-24T00:54:07;5.67;;;2.80;;
31061;SDS011;17724;53.546;9.974;2023-07-24T00:58:10;5.50;;;2.50;;
31061;SDS011;17724;53.546;9.974;2023-07-24T01:02:11;6.10;;;2.77;;
31061;SDS011;17724;53.546;9.974;2023-07-24T01:06:13;5.60;;;2.80;;
31061;SDS011;17724;53.546;9.974;2023-07-24T01:10:13;6.13;;;3.00;;
31061;SDS011;17724;53.546;9.974;2023-07-24T01:15:03;6.60;;;3.17;;
31061;SDS011;17724;53.546;9.974;2023-07-24T01:18:41;6.90;;;2.93;;
31061;SDS011;17724;53.546;9.974;2023-07-24T01:22:48;7.00;;;3.20;;
31061;SDS011;17724;53.546;9.974;2023-07-24T01:27:06;6.37;;;3.27;;
31061;SDS011;17724;53.546;9.974;2023-07-24T01:31:07;5.87;;;3.07;;
31061;SDS011;17724;53.546;9.974;2023-07-24T01:35:07;5.87;;;2.77;;
31061;SDS011;17724;53.546;9.974;2023-07-24T01:39:10;6.97;;;3.57;;
31061;SDS011;17724;53.546;9.974;2023-07-24T01:43:11;6.83;;;3.20;;
31061;SDS011;17724;53.546;9.974;2023-07-24T01:47:11;5.50;;;2.83;;
31061;SDS011;17724;53.546;9.974;2023-07-24T01:51:12;5.87;;;2.77;;
31061;SDS011;17724;53.546;9.974;2023-07-24T01:55:12;6.13;;;3.13;;
31061;SDS011;17724;53.546;9.974;2023-07-24T01:59:12;6.47;;;3.10;;
31061;SDS011;17724;53.546;9.974;2023-07-24T02:03:13;6.03;;;2.63;;
31061;SDS011;17724;53.546;9.974;2023-07-24T02:07:14;5.50;;;2.70;;
31061;SDS011;17724;53.546;9.974;2023-07-24T02:11:15;6.10;;;3.20;;
31061;SDS011;17724;53.546;9.974;2023-07-24T02:15:16;7.17;;;3.20;;
31061;SDS011;17724;53.546;9.974;2023-07-24T02:19:16;7.30;;;3.40;;
31061;SDS011;17724;53.546;9.974;2023-07-24T02:23:16;6.00;;;3.23;;
31061;SDS011;17724;53.546;9.974;2023-07-24T02:27:27;6.50;;;3.30;;
31061;SDS011;17724;53.546;9.974;2023-07-24T02:31:34;6.80;;;3.43;;
31061;SDS011;17724;53.546;9.974;2023-07-24T02:35:41;5.67;;;3.27;;
31061;SDS011;17724;53.546;9.974;2023-07-24T02:39:43;5.83;;;3.00;;
31061;SDS011;17724;53.546;9.974;2023-07-24T02:43:43;6.53;;;4.00;;
31061;SDS011;17724;53.546;9.974;2023-07-24T02:47:44;7.90;;;4.40;;
31061;SDS011;17724;53.546;9.974;2023-07-24T02:51:44;6.40;;;3.30;;
31061;SDS011;17724;53.546;9.974;2023-07-24T02:55:45;7.00;;;3.83;;
31061;SDS011;17724;53.546;9.974;2023-07-24T02:59:46;7.47;;;4.57;;
31061;SDS011;17724;53.546;9.974;2023-07-24T03:03:47;9.10;;;4.10;;
31061;SDS011;17724;53.546;9.974;2023-07-24T03:07:47;6.50;;;3.30;;
31061;SDS011;17724;53.546;9.974;2023-07-24T03:11:48;6.60;;;3.77;;
31061;SDS011;17724;53.546;9.974;2023-07-24T03:15:55;5.73;;;2.90;;
31061;SDS011;17724;53.546;9.974;2023-07-24T03:19:57;6.63;;;3.30;;
31061;SDS011;17724;53.546;9.974;2023-07-24T03:23:57;7.20;;;3.83;;
31061;SDS011;17724;53.546;9.974;2023-07-24T03:27:58;6.00;;;3.27;;
31061;SDS011;17724;53.546;9.974;2023-07-24T03:32:00;7.07;;;3.80;;
31061;SDS011;17724;53.546;9.974;2023-07-24T03:36:00;7.07;;;4.20;;
31061;SDS011;17724;53.546;9.974;2023-07-24T03:40:02;6.30;;;3.63;;
31061;SDS011;17724;53.546;9.974;2023-07-24T03:44:04;6.43;;;3.90;;
31061;SDS011;17724;53.546;9.974;2023-07-24T03:48:05;7.13;;;3.30;;
31061;SDS011;17724;53.546;9.974;2023-07-24T03:52:05;6.63;;;3.40;;
31061;SDS011;17724;53.546;9.974;2023-07-24T03:56:05;12.03;;;5.03;;
31061;SDS011;17724;53.546;9.974;2023-07-24T04:00:06;7.60;;;3.40;;
31061;SDS011;17724;53.546;9.974;2023-07-24T04:04:12;7.10;;;4.10;;
31061;SDS011;17724;53.546;9.974;2023-07-24T04:08:13;7.27;;;3.97;;
31061;SDS011;17724;53.546;9.974;2023-07-24T04:12:13;7.63;;;3.93;;
31061;SDS011;17724;53.546;9.974;2023-07-24T04:16:14;7.23;;;5.23;;
31061;SDS011;17724;53.546;9.974;2023-07-24T04:20:14;8.50;;;4.50;;
31061;SDS011;17724;53.546;9.974;2023-07-24T04:24:15;7.10;;;4.20;;
31061;SDS011;17724;53.546;9.974;2023-07-24T04:28:15;7.67;;;4.80;;
31061;SDS011;17724;53.546;9.974;2023-07-24T04:32:16;8.23;;;4.23;;
31061;SDS011;17724;53.546;9.974;2023-07-24T04:36:16;7.93;;;4.90;;
31061;SDS011;17724;53.546;9.974;2023-07-24T04:40:17;8.20;;;4.70;;
31061;SDS011;17724;53.546;9.974;2023-07-24T04:44:17;6.90;;;3.90;;
31061;SDS011;17724;53.546;9.974;2023-07-24T04:48:17;6.70;;;4.20;;
31061;SDS011;17724;53.546;9.974;2023-07-24T04:52:18;7.87;;;4.60;;
31061;SDS011;17724;53.546;9.974;2023-07-24T04:56:18;8.23;;;4.50;;
31061;SDS011;17724;53.546;9.974;2023-07-24T05:00:19;8.00;;;5.30;;
31061;SDS011;17724;53.546;9.974;2023-07-24T05:04:19;7.10;;;3.90;;
31061;SDS011;17724;53.546;9.974;2023-07-24T05:08:20;6.97;;;4.50;;
31061;SDS011;17724;53.546;9.974;2023-07-24T05:12:20;7.20;;;3.80;;
31061;SDS011;17724;53.546;9.974;2023-07-24T05:16:21;7.07;;;4.37;;
31061;SDS011;17724;53.546;9.974;2023-07-24T05:20:21;7.30;;;3.97;;
31061;SDS011;17724;53.546;9.974;2023-07-24T05:24:22;7.43;;;4.17;;
31061;SDS011;17724;53.546;9.974;2023-07-24T05:28:22;8.67;;;4.50;;
31061;SDS011;17724;53.546;9.974;2023-07-24T05:32:23;14.90;;;4.77;;
31061;SDS011;17724;53.546;9.974;2023-07-24T05:36:23;7.80;;;4.00;;
31061;SDS011;17724;53.546;9.974;2023-07-24T05:40:24;8.60;;;4.00;;
31061;SDS011;17724;53.546;9.974;2023-07-24T05:44:24;7.80;;;3.80;;
31061;SDS011;17724;53.546;9.974;2023-07-24T05:48:25;7.60;;;4.27;;
31061;SDS011;17724;53.546;9.974;2023-07-24T05:52:25;6.07;;;3.60;;
31061;SDS011;17724;53.546;9.974;2023-07-24T05:56:25;6.83;;;4.20;;
31061;SDS011;17724;53.546;9.974;2023-07-24T06:00:26;6.70;;;4.00;;
31061;SDS011;17724;53.546;9.974;2023-07-24T06:04:26;6.87;;;4.57;;
31061;SDS011;17724;53.546;9.974;2023-07-24T06:08:27;7.90;;;3.93;;
31061;SDS011;17724;53.546;9.974;2023-07-24T06:12:27;6.67;;;4.10;;
31061;SDS011;17724;53.546;9.974;2023-07-24T06:16:28;13.43;;;4.50;;
31061;SDS011;17724;53.546;9.974;2023-07-24T06:20:28;6.87;;;4.60;;
31061;SDS011;17724;53.546;9.974;2023-07-24T06:24:29;7.20;;;3.90;;
31061;SDS011;17724;53.546;9.974;2023-07-24T06:28:29;6.93;;;4.30;;
31061;SDS011;17724;53.546;9.974;2023-07-24T06:32:30;6.70;;;4.27;;
31061;SDS011;17724;53.546;9.974;2023-07-24T06:36:30;12.53;;;5.03;;
31061;SDS011;17724;53.546;9.974;2023-07-24T06:40:30;6.43;;;4.27;;
31061;SDS011;17724;53.546;9.974;2023-07-24T06:44:31;7.20;;;4.63;;
31061;SDS011;17724;53.546;9.974;2023-07-24T06:48:31;7.40;;;4.80;;
31061;SDS011;17724;53.546;9.974;2023-07-24T06:52:32;7.20;;;5.10;;
31061;SDS011;17724;53.546;9.974;2023-07-24T06:56:33;6.83;;;4.80;;
31061;SDS011;17724;53.546;9.974;2023-07-24T07:00:33;7.83;;;4.63;;
31061;SDS011;17724;53.546;9.974;2023-07-24T07:04:34;6.80;;;4.57;;
31061;SDS011;17724;53.546;9.974;2023-07-24T07:08:34;6.70;;;4.17;;
31061;SDS011;17724;53.546;9.974;2023-07-24T07:12:35;6.33;;;4.13;;
31061;SDS011;17724;53.546;9.974;2023-07-24T07:16:35;6.80;;;4.70;;
31061;SDS011;17724;53.546;9.974;2023-07-24T07:20:35;7.70;;;5.13;;
31061;SDS011;17724;53.546;9.974;2023-07-24T07:24:36;7.23;;;5.00;;
31061;SDS011;17724;53.546;9.974;2023-07-24T07:28:37;7.20;;;4.27;;
31061;SDS011;17724;53.546;9.974;2023-07-24T07:32:38;7.27;;;4.80;;
31061;SDS011;17724;53.546;9.974;2023-07-24T07:36:38;7.83;;;4.57;;
31061;SDS011;17724;53.546;9.974;2023-07-24T07:40:38;6.33;;;4.23;;
31061;SDS011;17724;53.546;9.974;2023-07-24T07:44:39;7.90;;;4.27;;
31061;SDS011;17724;53.546;9.974;2023-07-24T07:48:39;7.00;;;4.90;;
31061;SDS011;17724;53.546;9.974;2023-07-24T07:52:41;6.57;;;4.20;;
31061;SDS011;17724;53.546;9.974;2023-07-24T07:56:41;6.63;;;4.30;;
31061;SDS011;17724;53.546;9.974;2023-07-24T08:00:42;7.93;;;4.63;;
31061;SDS011;17724;53.546;9.974;2023-07-24T08:04:42;9.47;;;4.97;;
31061;SDS011;17724;53.546;9.974;2023-07-24T08:08:43;7.30;;;5.37;;
31061;SDS011;17724;53.546;9.974;2023-07-24T08:12:43;7.90;;;5.80;;
31061;SDS011;17724;53.546;9.974;2023-07-24T08:16:44;7.80;;;5.17;;
31061;SDS011;17724;53.546;9.974;2023-07-24T08:20:47;6.60;;;4.97;;
31061;SDS011;17724;53.546;9.974;2023-07-24T08:24:48;10.40;;;6.70;;
31061;SDS011;17724;53.546;9.974;2023-07-24T08:28:50;7.70;;;5.43;;
31061;SDS011;17724;53.546;9.974;2023-07-24T08:32:51;11.70;;;6.23;;
31061;SDS011;17724;53.546;9.974;2023-07-24T08:36:51;8.10;;;6.17;;
31061;SDS011;17724;53.546;9.974;2023-07-24T08:41:05;8.67;;;6.20;;
31061;SDS011;17724;53.546;9.974;2023-07-24T08:45:11;9.53;;;5.30;;
31061;SDS011;17724;53.546;9.974;2023-07-24T08:49:15;7.60;;;5.63;;
31061;SDS011;17724;53.546;9.974;2023-07-24T08:53:16;7.17;;;5.40;;
31061;SDS011;17724;53.546;9.974;2023-07-24T08:57:18;7.50;;;5.53;;
31061;SDS011;17724;53.546;9.974;2023-07-24T09:01:20;7.93;;;6.27;;
31061;SDS011;17724;53.546;9.974;2023-07-24T09:05:20;7.57;;;6.00;;
31061;SDS011;17724;53.546;9.974;2023-07-24T09:09:21;9.17;;;6.57;;
31061;SDS011;17724;53.546;9.974;2023-07-24T09:13:21;8.30;;;6.60;;
31061;SDS011;17724;53.546;9.974;2023-07-24T09:17:22;7.87;;;6.90;;
31061;SDS011;17724;53.546;9.974;2023-07-24T09:21:31;10.60;;;7.27;;
31061;SDS011;17724;53.546;9.974;2023-07-24T09:25:32;8.60;;;6.00;;
31061;SDS011;17724;53.546;9.974;2023-07-24T09:29:34;8.27;;;6.87;;
31061;SDS011;17724;53.546;9.974;2023-07-24T09:33:36;11.67;;;8.03;;
31061;SDS011;17724;53.546;9.974;2023-07-24T09:37:38;8.10;;;6.63;;
31061;SDS011;17724;53.546;9.974;2023-07-24T09:41:39;8.50;;;6.53;;
31061;SDS011;17724;53.546;9.974;2023-07-24T09:45:40;9.00;;;7.10;;
31061;SDS011;17724;53.546;9.974;2023-07-24T09:49:41;8.37;;;6.30;;
31061;SDS011;17724;53.546;9.974;2023-07-24T09:54:43;8.30;;;7.07;;
31061;SDS011;17724;53.546;9.974;2023-07-24T09:58:14;8.97;;;6.33;;
31061;SDS011;17724;53.546;9.974;2023-07-24T10:02:16;7.70;;;5.73;;
31061;SDS011;17724;53.546;9.974;2023-07-24T10:06:17;9.40;;;6.53;;
31061;SDS011;17724;53.546;9.974;2023-07-24T10:10:18;14.93;;;6.30;;
31061;SDS011;17724;53.546;9.974;2023-07-24T10:14:21;9.70;;;6.60;;
31061;SDS011;17724;53.546;9.974;2023-07-24T10:18:27;7.47;;;5.97;;
31061;SDS011;17724;53.546;9.974;2023-07-24T10:22:29;7.60;;;5.63;;
31061;SDS011;17724;53.546;9.974;2023-07-24T10:26:30;7.60;;;5.37;;
31061;SDS011;17724;53.546;9.974;2023-07-24T10:30:31;7.63;;;6.10;;
31061;SDS011;17724;53.546;9.974;2023-07-24T10:34:38;12.50;;;6.87;;
31061;SDS011;17724;53.546;9.974;2023-07-24T10:38:42;9.13;;;6.17;;
31061;SDS011;17724;53.546;9.974;2023-07-24T10:42:44;6.97;;;5.17;;
31061;SDS011;17724;53.546;9.974;2023-07-24T10:46:44;7.83;;;5.73;;
31061;SDS011;17724;53.546;9.974;2023-07-24T10:50:45;8.20;;;5.67;;
31061;SDS011;17724;53.546;9.974;2023-07-24T10:54:50;8.37;;;5.47;;
31061;SDS011;17724;53.546;9.974;2023-07-24T10:58:50;7.80;;;5.97;;
31061;SDS011;17724;53.546;9.974;2023-07-24T11:02:52;6.97;;;5.33;;
31061;SDS011;17724;53.546;9.974;2023-07-24T11:06:54;7.17;;;5.00;;
31061;SDS011;17724;53.546;9.974;2023-07-24T11:10:57;6.63;;;4.57;;
31061;SDS011;17724;53.546;9.974;2023-07-24T11:14:58;7.80;;;4.97;;
31061;SDS011;17724;53.546;9.974;2023-07-24T11:18:59;7.00;;;5.10;;
31061;SDS011;17724;53.546;9.974;2023-07-24T11:22:59;7.47;;;4.70;;
31061;SDS011;17724;53.546;9.974;2023-07-24T11:27:00;8.80;;;4.17;;
31061;SDS011;17724;53.546;9.974;2023-07-24T11:31:03;7.90;;;4.67;;
31061;SDS011;17724;53.546;9.974;2023-07-24T11:35:04;7.67;;;5.40;;
31061;SDS011;17724;53.546;9.974;2023-07-24T11:39:05;9.87;;;4.60;;
31061;SDS011;17724;53.546;9.974;2023-07-24T11:43:14;8.90;;;5.23;;
31061;SDS011;17724;53.546;9.974;2023-07-24T11:47:16;10.00;;;5.07;;
31061;SDS011;17724;53.546;9.974;2023-07-24T11:51:17;13.03;;;6.33;;
31061;SDS011;17724;53.546;9.974;2023-07-24T11:55:18;7.50;;;5.50;;
31061;SDS011;17724;53.546;9.974;2023-07-24T11:59:36;6.40;;;5.23;;
31061;SDS011;17724;53.546;9.974;2023-07-24T12:03:39;8.57;;;4.80;;
31061;SDS011;17724;53.546;9.974;2023-07-24T12:07:42;6.70;;;4.77;;
31061;SDS011;17724;53.546;9.974;2023-07-24T12:11:46;15.27;;;7.00;;
31061;SDS011;17724;53.546;9.974;2023-07-24T12:15:49;18.23;;;9.90;;
31061;SDS011;17724;53.546;9.974;2023-07-24T12:19:49;7.50;;;5.23;;
31061;SDS011;17724;53.546;9.974;2023-07-24T12:23:50;15.13;;;7.40;;
31061;SDS011;17724;53.546;9.974;2023-07-24T12:27:50;6.63;;;5.03;;
31061;SDS011;17724;53.546;9.974;2023-07-24T12:31:51;6.77;;;4.77;;
31061;SDS011;17724;53.546;9.974;2023-07-24T12:35:51;7.80;;;4.53;;
31061;SDS011;17724;53.546;9.974;2023-07-24T12:39:53;5.90;;;3.63;;
31061;SDS011;17724;53.546;9.974;2023-07-24T12:43:53;6.03;;;4.73;;
31061;SDS011;17724;53.546;9.974;2023-07-24T12:47:53;6.00;;;4.43;;
31061;SDS011;17724;53.546;9.974;2023-07-24T12:51:55;6.70;;;4.90;;
31061;SDS011;17724;53.546;9.974;2023-07-24T12:55:56;6.53;;;4.10;;
31061;SDS011;17724;53.546;9.974;2023-07-24T12:59:56;7.00;;;4.80;;
31061;SDS011;17724;53.546;9.974;2023-07-24T13:03:57;9.10;;;7.80;;
31061;SDS011;17724;53.546;9.974;2023-07-24T13:07:57;8.57;;;5.43;;
31061;SDS011;17724;53.546;9.974;2023-07-24T13:11:58;8.40;;;6.90;;
31061;SDS011;17724;53.546;9.974;2023-07-24T13:15:58;18.33;;;13.17;;
31061;SDS011;17724;53.546;9.974;2023-07-24T13:19:59;13.57;;;8.17;;
31061;SDS011;17724;53.546;9.974;2023-07-24T13:23:59;16.20;;;12.30;;
31061;SDS011;17724;53.546;9.974;2023-07-24T13:28:00;14.40;;;7.10;;
31061;SDS011;17724;53.546;9.974;2023-07-24T13:32:00;13.70;;;9.27;;
31061;SDS011;17724;53.546;9.974;2023-07-24T13:36:01;12.57;;;6.93;;
31061;SDS011;17724;53.546;9.974;2023-07-24T13:40:01;23.03;;;18.73;;
31061;SDS011;17724;53.546;9.974;2023-07-24T13:44:02;11.80;;;7.63;;
31061;SDS011;17724;53.546;9.974;2023-07-24T13:48:02;13.10;;;10.53;;
31061;SDS011;17724;53.546;9.974;2023-07-24T13:52:03;11.80;;;7.97;;
31061;SDS011;17724;53.546;9.974;2023-07-24T13:56:03;15.13;;;10.40;;
31061;SDS011;17724;53.546;9.974;2023-07-24T14:00:04;10.23;;;6.13;;
31061;SDS011;17724;53.546;9.974;2023-07-24T14:04:12;9.03;;;6.27;;
31061;SDS011;17724;53.546;9.974;2023-07-24T14:08:14;12.30;;;7.60;;
31061;SDS011;17724;53.546;9.974;2023-07-24T14:12:14;16.93;;;8.87;;
31061;SDS011;17724;53.546;9.974;2023-07-24T14:16:15;11.00;;;6.80;;
31061;SDS011;17724;53.546;9.974;2023-07-24T14:20:16;10.13;;;6.90;;
31061;SDS011;17724;53.546;9.974;2023-07-24T14:24:16;18.00;;;10.83;;
31061;SDS011;17724;53.546;9.974;2023-07-24T14:28:17;9.73;;;6.17;;
31061;SDS011;17724;53.546;9.974;2023-07-24T14:32:17;8.27;;;5.67;;
31061;SDS011;17724;53.546;9.974;2023-07-24T14:36:18;8.57;;;5.63;;
31061;SDS011;17724;53.546;9.974;2023-07-24T14:40:18;11.80;;;7.50;;
31061;SDS011;17724;53.546;9.974;2023-07-24T14:44:19;9.53;;;6.20;;
31061;SDS011;17724;53.546;9.974;2023-07-24T14:48:20;8.03;;;5.70;;
31061;SDS011;17724;53.546;9.974;2023-07-24T14:52:20;7.80;;;4.90;;
31061;SDS011;17724;53.546;9.974;2023-07-24T14:56:21;8.03;;;5.37;;
31061;SDS011;17724;53.546;9.974;2023-07-24T15:00:21;16.37;;;11.93;;
31061;SDS011;17724;53.546;9.974;2023-07-24T15:04:22;10.80;;;8.20;;
31061;SDS011;17724;53.546;9.974;2023-07-24T15:08:23;9.63;;;6.30;;
31061;SDS011;17724;53.546;9.974;2023-07-24T15:12:24;11.10;;;7.43;;
31061;SDS011;17724;53.546;9.974;2023-07-24T15:16:25;9.63;;;6.27;;
31061;SDS011;17724;53.546;9.974;2023-07-24T15:20:25;8.93;;;6.77;;
31061;SDS011;17724;53.546;9.974;2023-07-24T15:24:26;10.40;;;7.17;;
31061;SDS011;17724;53.546;9.974;2023-07-24T15:28:26;11.50;;;6.60;;
31061;SDS011;17724;53.546;9.974;2023-07-24T15:32:27;11.43;;;8.13;;
31061;SDS011;17724;53.546;9.974;2023-07-24T15:36:27;7.60;;;4.80;;
31061;SDS011;17724;53.546;9.974;2023-07-24T15:40:29;26.50;;;23.70;;
31061;SDS011;17724;53.546;9.974;2023-07-24T15:44:30;9.20;;;6.03;;
31061;SDS011;17724;53.546;9.974;2023-07-24T15:48:31;20.67;;;18.47;;
31061;SDS011;17724;53.546;9.974;2023-07-24T15:52:32;14.60;;;12.90;;
31061;SDS011;17724;53.546;9.974;2023-07-24T15:56:33;6.20;;;3.60;;
31061;SDS011;17724;53.546;9.974;2023-07-24T16:00:34;14.57;;;10.67;;
31061;SDS011;17724;53.546;9.974;2023-07-24T16:04:34;16.87;;;15.20;;
31061;SDS011;17724;53.546;9.974;2023-07-24T16:08:35;24.53;;;21.93;;
31061;SDS011;17724;53.546;9.974;2023-07-24T16:12:35;18.20;;;14.17;;
31061;SDS011;17724;53.546;9.974;2023-07-24T16:16:36;30.53;;;25.73;;
31061;SDS011;17724;53.546;9.974;2023-07-24T16:20:36;47.17;;;37.20;;
31061;SDS011;17724;53.546;9.974;2023-07-24T16:24:37;16.83;;;11.07;;
31061;SDS011;17724;53.546;9.974;2023-07-24T16:28:37;21.50;;;18.03;;
31061;SDS011;17724;53.546;9.974;2023-07-24T16:32:38;23.23;;;14.23;;
31061;SDS011;17724;53.546;9.974;2023-07-24T16:36:38;21.47;;;18.43;;
31061;SDS011;17724;53.546;9.974;2023-07-24T16:40:39;8.23;;;4.33;;
31061;SDS011;17724;53.546;9.974;2023-07-24T16:44:39;46.43;;;32.23;;
31061;SDS011;17724;53.546;9.974;2023-07-24T16:48:40;15.43;;;11.33;;
31061;SDS011;17724;53.546;9.974;2023-07-24T16:52:41;15.00;;;9.87;;
31061;SDS011;17724;53.546;9.974;2023-07-24T16:56:42;22.90;;;19.50;;
31061;SDS011;17724;53.546;9.974;2023-07-24T17:00:42;24.53;;;22.37;;
31061;SDS011;17724;53.546;9.974;2023-07-24T17:04:43;15.17;;;11.47;;
31061;SDS011;17724;53.546;9.974;2023-07-24T17:08:44;27.33;;;19.80;;
31061;SDS011;17724;53.546;9.974;2023-07-24T17:12:44;17.03;;;15.23;;
31061;SDS011;17724;53.546;9.974;2023-07-24T17:16:45;22.07;;;19.30;;
31061;SDS011;17724;53.546;9.974;2023-07-24T17:20:47;15.63;;;13.27;;
31061;SDS011;17724;53.546;9.974;2023-07-24T17:24:48;26.20;;;23.50;;
31061;SDS011;17724;53.546;9.974;2023-07-24T17:28:49;18.43;;;14.20;;
31061;SDS011;17724;53.546;9.974;2023-07-24T17:32:49;33.80;;;30.33;;
31061;SDS011;17724;53.546;9.974;2023-07-24T17:36:50;15.53;;;12.07;;
31061;SDS011;17724;53.546;9.974;2023-07-24T17:40:50;19.00;;;14.57;;
31061;SDS011;17724;53.546;9.974;2023-07-24T17:44:51;19.27;;;14.30;;
31061;SDS011;17724;53.546;9.974;2023-07-24T17:48:51;10.53;;;7.90;;
31061;SDS011;17724;53.546;9.974;2023-07-24T17:52:52;15.70;;;10.27;;
31061;SDS011;17724;53.546;9.974;2023-07-24T17:56:53;23.60;;;16.37;;
31061;SDS011;17724;53.546;9.974;2023-07-24T18:00:54;9.93;;;6.77;;
31061;SDS011;17724;53.546;9.974;2023-07-24T18:04:55;55.00;;;49.50;;
31061;SDS011;17724;53.546;9.974;2023-07-24T18:08:56;76.17;;;69.40;;
31061;SDS011;17724;53.546;9.974;2023-07-24T18:12:56;51.73;;;46.30;;
31061;SDS011;17724;53.546;9.974;2023-07-24T18:16:57;30.10;;;27.00;;
31061;SDS011;17724;53.546;9.974;2023-07-24T18:20:57;19.03;;;14.73;;
31061;SDS011;17724;53.546;9.974;2023-07-24T18:24:58;17.47;;;13.30;;
31061;SDS011;17724;53.546;9.974;2023-07-24T18:28:59;23.93;;;16.57;;
31061;SDS011;17724;53.546;9.974;2023-07-24T18:33:00;12.73;;;8.90;;
31061;SDS011;17724;53.546;9.974;2023-07-24T18:37:01;15.27;;;11.47;;
31061;SDS011;17724;53.546;9.974;2023-07-24T18:41:01;17.73;;;13.43;;
31061;SDS011;17724;53.546;9.974;2023-07-24T18:45:02;13.20;;;9.27;;
31061;SDS011;17724;53.546;9.974;2023-07-24T18:49:03;19.10;;;12.50;;
31061;SDS011;17724;53.546;9.974;2023-07-24T18:53:04;24.97;;;21.03;;
31061;SDS011;17724;53.546;9.974;2023-07-24T18:57:04;25.17;;;22.57;;
31061;SDS011;17724;53.546;9.974;2023-07-24T19:01:05;25.80;;;22.00;;
31061;SDS011;17724;53.546;9.974;2023-07-24T19:05:05;32.90;;;28.97;;
31061;SDS011;17724;53.546;9.974;2023-07-24T19:09:06;22.27;;;17.07;;
31061;SDS011;17724;53.546;9.974;2023-07-24T19:13:06;14.60;;;11.23;;
31061;SDS011;17724;53.546;9.974;2023-07-24T19:17:07;14.33;;;10.27;;
31061;SDS011;17724;53.546;9.974;2023-07-24T19:21:07;22.60;;;15.30;;
31061;SDS011;17724;53.546;9.974;2023-07-24T19:25:08;18.93;;;14.40;;
31061;SDS011;17724;53.546;9.974;2023-07-24T19:29:08;15.67;;;11.13;;
31061;SDS011;17724;53.546;9.974;2023-07-24T19:33:09;44.43;;;34.63;;
31061;SDS011;17724;53.546;9.974;2023-07-24T19:37:10;36.37;;;32.70;;
31061;SDS011;17724;53.546;9.974;2023-07-24T19:41:11;14.03;;;10.53;;
31061;SDS011;17724;53.546;9.974;2023-07-24T19:45:12;15.50;;;13.10;;
31061;SDS011;17724;53.546;9.974;2023-07-24T19:49:12;17.50;;;13.97;;
31061;SDS011;17724;53.546;9.974;2023-07-24T19:53:13;10.93;;;7.63;;
31061;SDS011;17724;53.546;9.974;2023-07-24T19:57:13;14.10;;;7.10;;
31061;SDS011;17724;53.546;9.974;2023-07-24T20:01:14;16.67;;;13.17;;
31061;SDS011;17724;53.546;9.974;2023-07-24T20:05:14;11.40;;;7.10;;
31061;SDS011;17724;53.546;9.974;2023-07-24T20:09:15;10.43;;;7.13;;
31061;SDS011;17724;53.546;9.974;2023-07-24T20:13:15;13.13;;;7.67;;
31061;SDS011;17724;53.546;9.974;2023-07-24T20:17:16;50.80;;;43.80;;
31061;SDS011;17724;53.546;9.974;2023-07-24T20:21:17;23.37;;;20.87;;
31061;SDS011;17724;53.546;9.974;2023-07-24T20:25:17;20.00;;;13.50;;
31061;SDS011;17724;53.546;9.974;2023-07-24T20:29:18;9.47;;;6.10;;
31061;SDS011;17724;53.546;9.974;2023-07-24T20:33:19;13.40;;;8.07;;
31061;SDS011;17724;53.546;9.974;2023-07-24T20:37:19;14.40;;;8.97;;
31061;SDS011;17724;53.546;9.974;2023-07-24T20:41:20;9.67;;;5.33;;
31061;SDS011;17724;53.546;9.974;2023-07-24T20:45:20;7.40;;;3.70;;
31061;SDS011;17724;53.546;9.974;2023-07-24T20:49:21;8.27;;;3.17;;
31061;SDS011;17724;53.546;9.974;2023-07-24T20:53:21;8.80;;;3.87;;
31061;SDS011;17724;53.546;9.974;2023-07-24T20:57:22;6.40;;;2.40;;
31061;SDS011;17724;53.546;9.974;2023-07-24T21:01:22;7.63;;;4.40;;
31061;SDS011;17724;53.546;9.974;2023-07-24T21:05:23;7.07;;;1.70;;
31061;SDS011;17724;53.546;9.974;2023-07-24T21:09:23;11.13;;;4.57;;
31061;SDS011;17724;53.546;9.974;2023-07-24T21:13:24;6.57;;;1.90;;
31061;SDS011;17724;53.546;9.974;2023-07-24T21:17:25;9.50;;;2.33;;
31061;SDS011;17724;53.546;9.974;2023-07-24T21:21:25;8.97;;;2.30;;
31061;SDS011;17724;53.546;9.974;2023-07-24T21:25:25;8.10;;;2.40;;
31061;SDS011;17724;53.546;9.974;2023-07-24T21:29:26;8.40;;;2.80;;
31061;SDS011;17724;53.546;9.974;2023-07-24T21:33:26;7.57;;;2.27;;
31061;SDS011;17724;53.546;9.974;2023-07-24T21:37:27;6.40;;;2.27;;
31061;SDS011;17724;53.546;9.974;2023-07-24T21:41:28;9.33;;;2.30;;
31061;SDS011;17724;53.546;9.974;2023-07-24T21:45:29;6.23;;;2.30;;
31061;SDS011;17724;53.546;9.974;2023-07-24T21:49:30;7.70;;;2.20;;
31061;SDS011;17724;53.546;9.974;2023-07-24T21:53:30;7.30;;;2.40;;
31061;SDS011;17724;53.546;9.974;2023-07-24T21:57:31;10.43;;;2.40;;
31061;SDS011;17724;53.546;9.974;2023-07-24T22:01:32;6.93;;;2.20;;
31061;SDS011;17724;53.546;9.974;2023-07-24T22:05:32;8.10;;;2.10;;
31061;SDS011;17724;53.546;9.974;2023-07-24T22:09:33;10.90;;;2.90;;
31061;SDS011;17724;53.546;9.974;2023-07-24T22:13:34;6.83;;;2.83;;
31061;SDS011;17724;53.546;9.974;2023-07-24T22:17:34;7.77;;;2.67;;
31061;SDS011;17724;53.546;9.974;2023-07-24T22:21:35;6.40;;;2.00;;
31061;SDS011;17724;53.546;9.974;2023-07-24T22:25:36;7.50;;;1.83;;
31061;SDS011;17724;53.546;9.974;2023-07-24T22:29:38;7.50;;;2.77;;
31061;SDS011;17724;53.546;9.974;2023-07-24T22:33:39;13.27;;;3.27;;
31061;SDS011;17724;53.546;9.974;2023-07-24T22:37:39;6.50;;;2.43;;
31061;SDS011;17724;53.546;9.974;2023-07-24T22:41:40;7.23;;;2.37;;
31061;SDS011;17724;53.546;9.974;2023-07-24T22:45:42;7.53;;;2.30;;
31061;SDS011;17724;53.546;9.974;2023-07-24T22:49:43;9.80;;;2.63;;
31061;SDS011;17724;53.546;9.974;2023-07-24T22:53:43;9.70;;;2.83;;
31061;SDS011;17724;53.546;9.974;2023-07-24T22:57:44;6.20;;;2.03;;
31061;SDS011;17724;53.546;9.974;2023-07-24T23:01:44;5.83;;;2.17;;
31061;SDS011;17724;53.546;9.974;2023-07-24T23:05:45;7.00;;;2.70;;
31061;SDS011;17724;53.546;9.974;2023-07-24T23:09:46;7.73;;;2.50;;
31061;SDS011;17724;53.546;9.974;2023-07-24T23:13:46;8.10;;;2.23;;
31061;SDS011;17724;53.546;9.974;2023-07-24T23:17:47;8.03;;;2.50;;
31061;SDS011;17724;53.546;9.974;2023-07-24T23:21:47;8.23;;;2.53;;
31061;SDS011;17724;53.546;9.974;2023-07-24T23:25:48;9.07;;;3.00;;
31061;SDS011;17724;53.546;9.974;2023-07-24T23:29:48;6.33;;;2.00;;
31061;SDS011;17724;53.546;9.974;2023-07-24T23:33:48;7.67;;;2.30;;
31061;SDS011;17724;53.546;9.974;2023-07-24T23:37:49;6.90;;;2.20;;
31061;SDS011;17724;53.546;9.974;2023-07-24T23:41:52;6.87;;;2.00;;
31061;SDS011;17724;53.546;9.974;2023-07-24T23:45:53;7.57;;;2.30;;
31061;SDS011;17724;53.546;9.974;2023-07-24T23:49:54;7.50;;;2.20;;
31061;SDS011;17724;53.546;9.974;2023-07-24T23:53:54;7.73;;;2.20;;
31061;SDS011;17724;53.546;9.974;2023-07-24T23:57:54;9.13;;;2.60;;
